sensor_id;sensor_type;location;lat;lon;timestamp;P1;durP1;ratioP1;P2;durP2;ratioP2
18228;SDS011;9239;50.932;3.142;2023-06-22T00:00:09;5.85;;;5.05;;
18228;SDS011;9239;50.932;3.142;2023-06-22T00:02:37;7.30;;;5.32;;
18228;SDS011;9239;50.932;3.142;2023-06-22T00:05:04;5.00;;;4.47;;
18228;SDS011;9239;50.932;3.142;2023-06-22T00:07:32;6.85;;;5.00;;
18228;SDS011;9239;50.932;3.142;2023-06-22T00:09:59;6.50;;;5.75;;
18228;SDS011;9239;50.932;3.142;2023-06-22T00:12:26;6.32;;;5.63;;
18228;SDS011;9239;50.932;3.142;2023-06-22T00:14:53;6.97;;;5.68;;
18228;SDS011;9239;50.932;3.142;2023-06-22T00:17:20;6.28;;;5.55;;
18228;SDS011;9239;50.932;3.142;2023-06-22T00:19:47;6.35;;;4.95;;
18228;SDS011;9239;50.932;3.142;2023-06-22T00:22:18;6.10;;;5.50;;
18228;SDS011;9239;50.932;3.142;2023-06-22T00:24:55;5.90;;;4.95;;
18228;SDS011;9239;50.932;3.142;2023-06-22T00:27:22;7.40;;;5.93;;
18228;SDS011;9239;50.932;3.142;2023-06-22T00:29:48;6.55;;;5.45;;
18228;SDS011;9239;50.932;3.142;2023-06-22T00:32:15;7.88;;;6.20;;
18228;SDS011;9239;50.932;3.142;2023-06-22T00:34:43;7.28;;;6.07;;
18228;SDS011;9239;50.932;3.142;2023-06-22T00:37:10;6.30;;;5.60;;
18228;SDS011;9239;50.932;3.142;2023-06-22T00:39:37;7.85;;;6.38;;
18228;SDS011;9239;50.932;3.142;2023-06-22T00:42:05;7.00;;;6.40;;
18228;SDS011;9239;50.932;3.142;2023-06-22T00:44:32;8.40;;;6.47;;
18228;SDS011;9239;50.932;3.142;2023-06-22T00:46:59;6.72;;;6.03;;
18228;SDS011;9239;50.932;3.142;2023-06-22T00:49:26;7.18;;;6.40;;
18228;SDS011;9239;50.932;3.142;2023-06-22T00:51:53;7.80;;;6.22;;
18228;SDS011;9239;50.932;3.142;2023-06-22T00:54:20;10.52;;;5.80;;
18228;SDS011;9239;50.932;3.142;2023-06-22T00:56:49;6.63;;;5.93;;
18228;SDS011;9239;50.932;3.142;2023-06-22T00:59:19;7.43;;;6.72;;
18228;SDS011;9239;50.932;3.142;2023-06-22T01:01:46;8.25;;;5.63;;
18228;SDS011;9239;50.932;3.142;2023-06-22T01:04:13;9.02;;;7.03;;
18228;SDS011;9239;50.932;3.142;2023-06-22T01:06:43;7.60;;;6.55;;
18228;SDS011;9239;50.932;3.142;2023-06-22T01:09:19;7.68;;;6.88;;
18228;SDS011;9239;50.932;3.142;2023-06-22T01:11:54;7.60;;;6.55;;
18228;SDS011;9239;50.932;3.142;2023-06-22T01:14:27;7.93;;;6.90;;
18228;SDS011;9239;50.932;3.142;2023-06-22T01:17:03;7.40;;;6.63;;
18228;SDS011;9239;50.932;3.142;2023-06-22T01:19:37;8.50;;;6.78;;
18228;SDS011;9239;50.932;3.142;2023-06-22T01:22:10;6.70;;;6.03;;
18228;SDS011;9239;50.932;3.142;2023-06-22T01:24:41;9.20;;;8.30;;
18228;SDS011;9239;50.932;3.142;2023-06-22T01:27:18;9.38;;;7.82;;
18228;SDS011;9239;50.932;3.142;2023-06-22T01:30:08;9.98;;;7.50;;
18228;SDS011;9239;50.932;3.142;2023-06-22T01:32:37;9.77;;;7.65;;
18228;SDS011;9239;50.932;3.142;2023-06-22T01:35:07;7.82;;;7.05;;
18228;SDS011;9239;50.932;3.142;2023-06-22T01:37:36;11.75;;;8.50;;
18228;SDS011;9239;50.932;3.142;2023-06-22T01:40:04;8.48;;;7.55;;
18228;SDS011;9239;50.932;3.142;2023-06-22T01:42:33;9.50;;;8.10;;
18228;SDS011;9239;50.932;3.142;2023-06-22T01:45:01;9.18;;;8.07;;
18228;SDS011;9239;50.932;3.142;2023-06-22T01:47:30;7.78;;;6.90;;
18228;SDS011;9239;50.932;3.142;2023-06-22T01:49:58;8.32;;;7.05;;
18228;SDS011;9239;50.932;3.142;2023-06-22T01:52:25;9.70;;;7.03;;
18228;SDS011;9239;50.932;3.142;2023-06-22T01:54:51;9.30;;;7.93;;
18228;SDS011;9239;50.932;3.142;2023-06-22T01:57:18;7.68;;;6.88;;
18228;SDS011;9239;50.932;3.142;2023-06-22T01:59:47;8.95;;;7.22;;
18228;SDS011;9239;50.932;3.142;2023-06-22T02:02:23;9.05;;;7.60;;
18228;SDS011;9239;50.932;3.142;2023-06-22T02:04:56;8.93;;;7.25;;
18228;SDS011;9239;50.932;3.142;2023-06-22T02:07:27;7.57;;;6.85;;
18228;SDS011;9239;50.932;3.142;2023-06-22T02:09:58;7.38;;;6.53;;
18228;SDS011;9239;50.932;3.142;2023-06-22T02:12:28;8.38;;;7.50;;
18228;SDS011;9239;50.932;3.142;2023-06-22T02:14:57;8.82;;;7.93;;
18228;SDS011;9239;50.932;3.142;2023-06-22T02:17:26;10.35;;;7.57;;
18228;SDS011;9239;50.932;3.142;2023-06-22T02:19:52;8.02;;;6.72;;
18228;SDS011;9239;50.932;3.142;2023-06-22T02:22:21;9.40;;;8.18;;
18228;SDS011;9239;50.932;3.142;2023-06-22T02:24:48;8.88;;;7.75;;
18228;SDS011;9239;50.932;3.142;2023-06-22T02:27:15;9.82;;;7.93;;
18228;SDS011;9239;50.932;3.142;2023-06-22T02:29:42;7.93;;;7.13;;
18228;SDS011;9239;50.932;3.142;2023-06-22T02:32:09;8.35;;;7.45;;
18228;SDS011;9239;50.932;3.142;2023-06-22T02:34:36;10.20;;;8.07;;
18228;SDS011;9239;50.932;3.142;2023-06-22T02:37:03;10.15;;;9.13;;
18228;SDS011;9239;50.932;3.142;2023-06-22T02:39:31;9.95;;;8.35;;
18228;SDS011;9239;50.932;3.142;2023-06-22T02:41:58;8.80;;;7.90;;
18228;SDS011;9239;50.932;3.142;2023-06-22T02:44:25;10.85;;;9.85;;
18228;SDS011;9239;50.932;3.142;2023-06-22T02:46:52;11.95;;;10.70;;
18228;SDS011;9239;50.932;3.142;2023-06-22T02:49:19;13.73;;;11.20;;
18228;SDS011;9239;50.932;3.142;2023-06-22T02:51:47;16.40;;;11.57;;
18228;SDS011;9239;50.932;3.142;2023-06-22T02:54:14;16.17;;;12.77;;
18228;SDS011;9239;50.932;3.142;2023-06-22T02:56:42;12.32;;;11.13;;
18228;SDS011;9239;50.932;3.142;2023-06-22T02:59:10;12.90;;;10.93;;
18228;SDS011;9239;50.932;3.142;2023-06-22T03:01:37;13.98;;;11.50;;
18228;SDS011;9239;50.932;3.142;2023-06-22T03:04:05;11.93;;;10.35;;
18228;SDS011;9239;50.932;3.142;2023-06-22T03:06:32;12.70;;;10.82;;
18228;SDS011;9239;50.932;3.142;2023-06-22T03:09:01;11.85;;;10.18;;
18228;SDS011;9239;50.932;3.142;2023-06-22T03:11:29;13.88;;;10.18;;
18228;SDS011;9239;50.932;3.142;2023-06-22T03:13:58;14.45;;;10.63;;
18228;SDS011;9239;50.932;3.142;2023-06-22T03:16:25;11.40;;;10.30;;
18228;SDS011;9239;50.932;3.142;2023-06-22T03:18:52;14.63;;;10.23;;
18228;SDS011;9239;50.932;3.142;2023-06-22T03:21:21;11.18;;;9.52;;
18228;SDS011;9239;50.932;3.142;2023-06-22T03:23:48;13.43;;;9.82;;
18228;SDS011;9239;50.932;3.142;2023-06-22T03:26:16;9.82;;;8.82;;
18228;SDS011;9239;50.932;3.142;2023-06-22T03:28:44;10.57;;;8.80;;
18228;SDS011;9239;50.932;3.142;2023-06-22T03:31:12;10.35;;;8.98;;
18228;SDS011;9239;50.932;3.142;2023-06-22T03:33:39;10.48;;;8.80;;
18228;SDS011;9239;50.932;3.142;2023-06-22T03:36:06;11.50;;;10.00;;
18228;SDS011;9239;50.932;3.142;2023-06-22T03:38:33;10.77;;;9.20;;
18228;SDS011;9239;50.932;3.142;2023-06-22T03:41:00;10.57;;;7.97;;
18228;SDS011;9239;50.932;3.142;2023-06-22T03:43:26;11.90;;;9.95;;
18228;SDS011;9239;50.932;3.142;2023-06-22T03:45:53;10.27;;;8.65;;
18228;SDS011;9239;50.932;3.142;2023-06-22T03:48:21;10.82;;;8.60;;
18228;SDS011;9239;50.932;3.142;2023-06-22T03:50:48;11.38;;;8.57;;
18228;SDS011;9239;50.932;3.142;2023-06-22T03:53:15;10.15;;;9.13;;
18228;SDS011;9239;50.932;3.142;2023-06-22T03:55:47;9.93;;;8.75;;
18228;SDS011;9239;50.932;3.142;2023-06-22T03:58:16;10.50;;;9.13;;
18228;SDS011;9239;50.932;3.142;2023-06-22T04:00:44;11.70;;;9.35;;
18228;SDS011;9239;50.932;3.142;2023-06-22T04:03:11;10.02;;;8.90;;
18228;SDS011;9239;50.932;3.142;2023-06-22T04:05:39;13.65;;;10.10;;
18228;SDS011;9239;50.932;3.142;2023-06-22T04:08:07;13.82;;;9.20;;
18228;SDS011;9239;50.932;3.142;2023-06-22T04:10:34;11.02;;;9.55;;
18228;SDS011;9239;50.932;3.142;2023-06-22T04:13:01;11.77;;;8.63;;
18228;SDS011;9239;50.932;3.142;2023-06-22T04:15:28;11.40;;;8.93;;
18228;SDS011;9239;50.932;3.142;2023-06-22T04:17:55;12.85;;;8.98;;
18228;SDS011;9239;50.932;3.142;2023-06-22T04:20:22;10.10;;;8.48;;
18228;SDS011;9239;50.932;3.142;2023-06-22T04:22:52;12.25;;;9.23;;
18228;SDS011;9239;50.932;3.142;2023-06-22T04:25:19;12.27;;;9.63;;
18228;SDS011;9239;50.932;3.142;2023-06-22T04:27:47;11.25;;;8.82;;
18228;SDS011;9239;50.932;3.142;2023-06-22T04:30:14;10.73;;;9.02;;
18228;SDS011;9239;50.932;3.142;2023-06-22T04:32:41;10.45;;;7.95;;
18228;SDS011;9239;50.932;3.142;2023-06-22T04:35:08;9.40;;;8.40;;
18228;SDS011;9239;50.932;3.142;2023-06-22T04:37:35;9.55;;;8.60;;
18228;SDS011;9239;50.932;3.142;2023-06-22T04:40:04;12.07;;;7.85;;
18228;SDS011;9239;50.932;3.142;2023-06-22T04:42:33;10.98;;;7.90;;
18228;SDS011;9239;50.932;3.142;2023-06-22T04:45:00;10.27;;;7.65;;
18228;SDS011;9239;50.932;3.142;2023-06-22T04:47:27;10.27;;;7.90;;
18228;SDS011;9239;50.932;3.142;2023-06-22T04:49:54;10.38;;;7.78;;
18228;SDS011;9239;50.932;3.142;2023-06-22T04:52:21;13.45;;;8.15;;
18228;SDS011;9239;50.932;3.142;2023-06-22T04:54:49;10.82;;;8.40;;
18228;SDS011;9239;50.932;3.142;2023-06-22T04:57:22;8.45;;;7.55;;
18228;SDS011;9239;50.932;3.142;2023-06-22T04:59:55;12.07;;;7.80;;
18228;SDS011;9239;50.932;3.142;2023-06-22T05:02:22;9.13;;;6.80;;
18228;SDS011;9239;50.932;3.142;2023-06-22T05:04:57;10.05;;;6.75;;
18228;SDS011;9239;50.932;3.142;2023-06-22T05:07:23;7.35;;;6.65;;
18228;SDS011;9239;50.932;3.142;2023-06-22T05:09:51;8.02;;;6.38;;
18228;SDS011;9239;50.932;3.142;2023-06-22T05:12:18;12.75;;;6.75;;
18228;SDS011;9239;50.932;3.142;2023-06-22T05:14:46;8.45;;;5.97;;
18228;SDS011;9239;50.932;3.142;2023-06-22T05:17:13;8.60;;;6.75;;
18228;SDS011;9239;50.932;3.142;2023-06-22T05:19:44;8.35;;;5.88;;
18228;SDS011;9239;50.932;3.142;2023-06-22T05:22:13;7.30;;;6.43;;
18228;SDS011;9239;50.932;3.142;2023-06-22T05:24:41;8.45;;;6.32;;
18228;SDS011;9239;50.932;3.142;2023-06-22T05:27:08;11.50;;;6.32;;
18228;SDS011;9239;50.932;3.142;2023-06-22T05:29:35;7.20;;;5.65;;
18228;SDS011;9239;50.932;3.142;2023-06-22T05:32:04;7.45;;;6.63;;
18228;SDS011;9239;50.932;3.142;2023-06-22T05:34:31;11.95;;;6.22;;
18228;SDS011;9239;50.932;3.142;2023-06-22T05:36:58;7.72;;;6.28;;
18228;SDS011;9239;50.932;3.142;2023-06-22T05:39:26;8.85;;;6.82;;
18228;SDS011;9239;50.932;3.142;2023-06-22T05:41:52;10.60;;;6.90;;
18228;SDS011;9239;50.932;3.142;2023-06-22T05:44:19;7.05;;;6.35;;
18228;SDS011;9239;50.932;3.142;2023-06-22T05:46:46;7.13;;;5.97;;
18228;SDS011;9239;50.932;3.142;2023-06-22T05:49:15;7.00;;;6.20;;
18228;SDS011;9239;50.932;3.142;2023-06-22T05:51:42;7.45;;;6.13;;
18228;SDS011;9239;50.932;3.142;2023-06-22T05:54:09;7.82;;;6.65;;
18228;SDS011;9239;50.932;3.142;2023-06-22T05:56:38;8.45;;;6.28;;
18228;SDS011;9239;50.932;3.142;2023-06-22T05:59:05;8.40;;;6.57;;
18228;SDS011;9239;50.932;3.142;2023-06-22T06:01:32;7.90;;;5.80;;
18228;SDS011;9239;50.932;3.142;2023-06-22T06:04:01;7.00;;;5.72;;
18228;SDS011;9239;50.932;3.142;2023-06-22T06:06:30;6.47;;;5.70;;
18228;SDS011;9239;50.932;3.142;2023-06-22T06:08:57;6.82;;;6.13;;
18228;SDS011;9239;50.932;3.142;2023-06-22T06:11:24;6.38;;;5.63;;
18228;SDS011;9239;50.932;3.142;2023-06-22T06:13:52;7.82;;;6.05;;
18228;SDS011;9239;50.932;3.142;2023-06-22T06:16:19;6.40;;;5.68;;
18228;SDS011;9239;50.932;3.142;2023-06-22T06:18:46;6.55;;;5.95;;
18228;SDS011;9239;50.932;3.142;2023-06-22T06:21:13;6.38;;;5.78;;
18228;SDS011;9239;50.932;3.142;2023-06-22T06:23:41;6.90;;;6.20;;
18228;SDS011;9239;50.932;3.142;2023-06-22T06:26:08;7.50;;;6.65;;
18228;SDS011;9239;50.932;3.142;2023-06-22T06:28:35;10.05;;;7.38;;
18228;SDS011;9239;50.932;3.142;2023-06-22T06:31:02;7.70;;;7.03;;
18228;SDS011;9239;50.932;3.142;2023-06-22T06:33:33;8.90;;;7.68;;
18228;SDS011;9239;50.932;3.142;2023-06-22T06:36:00;8.45;;;7.75;;
18228;SDS011;9239;50.932;3.142;2023-06-22T06:38:28;8.98;;;8.05;;
18228;SDS011;9239;50.932;3.142;2023-06-22T06:40:57;8.63;;;7.72;;
18228;SDS011;9239;50.932;3.142;2023-06-22T06:43:24;9.60;;;8.10;;
18228;SDS011;9239;50.932;3.142;2023-06-22T06:45:52;8.93;;;8.02;;
18228;SDS011;9239;50.932;3.142;2023-06-22T06:48:18;9.85;;;8.45;;
18228;SDS011;9239;50.932;3.142;2023-06-22T06:50:45;9.25;;;8.32;;
18228;SDS011;9239;50.932;3.142;2023-06-22T06:53:12;9.65;;;8.75;;
18228;SDS011;9239;50.932;3.142;2023-06-22T06:55:39;10.43;;;8.52;;
18228;SDS011;9239;50.932;3.142;2023-06-22T06:58:07;10.15;;;9.15;;
18228;SDS011;9239;50.932;3.142;2023-06-22T07:00:37;10.57;;;8.80;;
18228;SDS011;9239;50.932;3.142;2023-06-22T07:03:03;9.75;;;8.75;;
18228;SDS011;9239;50.932;3.142;2023-06-22T07:05:32;10.90;;;9.45;;
18228;SDS011;9239;50.932;3.142;2023-06-22T07:07:58;13.65;;;9.55;;
18228;SDS011;9239;50.932;3.142;2023-06-22T07:10:25;10.43;;;9.43;;
18228;SDS011;9239;50.932;3.142;2023-06-22T07:12:52;10.70;;;9.45;;
18228;SDS011;9239;50.932;3.142;2023-06-22T07:15:21;9.77;;;8.77;;
18228;SDS011;9239;50.932;3.142;2023-06-22T07:17:48;11.05;;;9.88;;
18228;SDS011;9239;50.932;3.142;2023-06-22T07:20:14;11.63;;;10.30;;
18228;SDS011;9239;50.932;3.142;2023-06-22T07:22:42;12.25;;;9.80;;
18228;SDS011;9239;50.932;3.142;2023-06-22T07:25:10;13.88;;;11.45;;
18228;SDS011;9239;50.932;3.142;2023-06-22T07:27:39;12.63;;;11.35;;
18228;SDS011;9239;50.932;3.142;2023-06-22T07:30:10;11.13;;;10.02;;
18228;SDS011;9239;50.932;3.142;2023-06-22T07:32:39;11.05;;;10.05;;
18228;SDS011;9239;50.932;3.142;2023-06-22T07:35:07;10.75;;;9.60;;
18228;SDS011;9239;50.932;3.142;2023-06-22T07:37:34;11.57;;;10.38;;
18228;SDS011;9239;50.932;3.142;2023-06-22T07:40:01;12.80;;;11.60;;
18228;SDS011;9239;50.932;3.142;2023-06-22T07:42:31;13.45;;;10.50;;
18228;SDS011;9239;50.932;3.142;2023-06-22T07:44:58;12.45;;;11.15;;
18228;SDS011;9239;50.932;3.142;2023-06-22T07:47:27;11.93;;;10.77;;
18228;SDS011;9239;50.932;3.142;2023-06-22T07:49:55;12.57;;;11.38;;
18228;SDS011;9239;50.932;3.142;2023-06-22T07:52:26;12.48;;;11.27;;
18228;SDS011;9239;50.932;3.142;2023-06-22T07:54:53;12.50;;;11.30;;
18228;SDS011;9239;50.932;3.142;2023-06-22T07:57:20;14.10;;;10.55;;
18228;SDS011;9239;50.932;3.142;2023-06-22T07:59:47;11.88;;;10.65;;
18228;SDS011;9239;50.932;3.142;2023-06-22T08:02:14;13.80;;;11.30;;
18228;SDS011;9239;50.932;3.142;2023-06-22T08:04:41;12.48;;;11.25;;
18228;SDS011;9239;50.932;3.142;2023-06-22T08:07:09;14.20;;;12.77;;
18228;SDS011;9239;50.932;3.142;2023-06-22T08:09:36;13.32;;;12.02;;
18228;SDS011;9239;50.932;3.142;2023-06-22T08:12:03;13.52;;;12.20;;
18228;SDS011;9239;50.932;3.142;2023-06-22T08:14:31;15.95;;;12.15;;
18228;SDS011;9239;50.932;3.142;2023-06-22T08:16:57;14.20;;;12.80;;
18228;SDS011;9239;50.932;3.142;2023-06-22T08:19:24;12.82;;;11.63;;
18228;SDS011;9239;50.932;3.142;2023-06-22T08:21:51;15.07;;;12.50;;
18228;SDS011;9239;50.932;3.142;2023-06-22T08:24:19;15.85;;;12.85;;
18228;SDS011;9239;50.932;3.142;2023-06-22T08:26:46;14.30;;;12.68;;
18228;SDS011;9239;50.932;3.142;2023-06-22T08:29:13;13.25;;;11.95;;
18228;SDS011;9239;50.932;3.142;2023-06-22T08:31:40;14.88;;;12.38;;
18228;SDS011;9239;50.932;3.142;2023-06-22T08:34:07;15.75;;;13.05;;
18228;SDS011;9239;50.932;3.142;2023-06-22T08:36:34;14.00;;;12.60;;
18228;SDS011;9239;50.932;3.142;2023-06-22T08:39:02;13.68;;;11.77;;
18228;SDS011;9239;50.932;3.142;2023-06-22T08:41:31;15.07;;;13.45;;
18228;SDS011;9239;50.932;3.142;2023-06-22T08:43:57;14.40;;;13.05;;
18228;SDS011;9239;50.932;3.142;2023-06-22T08:46:24;15.02;;;13.52;;
18228;SDS011;9239;50.932;3.142;2023-06-22T08:48:55;13.57;;;12.02;;
18228;SDS011;9239;50.932;3.142;2023-06-22T08:51:23;14.63;;;13.13;;
18228;SDS011;9239;50.932;3.142;2023-06-22T08:53:50;16.65;;;12.43;;
18228;SDS011;9239;50.932;3.142;2023-06-22T08:56:16;15.50;;;12.68;;
18228;SDS011;9239;50.932;3.142;2023-06-22T08:58:45;14.65;;;13.13;;
18228;SDS011;9239;50.932;3.142;2023-06-22T09:01:12;15.60;;;13.93;;
18228;SDS011;9239;50.932;3.142;2023-06-22T09:03:40;15.77;;;13.40;;
18228;SDS011;9239;50.932;3.142;2023-06-22T09:06:07;15.50;;;13.27;;
18228;SDS011;9239;50.932;3.142;2023-06-22T09:08:35;15.98;;;14.20;;
18228;SDS011;9239;50.932;3.142;2023-06-22T09:11:02;15.68;;;14.15;;
18228;SDS011;9239;50.932;3.142;2023-06-22T09:13:30;16.23;;;14.50;;
18228;SDS011;9239;50.932;3.142;2023-06-22T09:15:58;15.60;;;14.10;;
18228;SDS011;9239;50.932;3.142;2023-06-22T09:18:25;16.20;;;14.63;;
18228;SDS011;9239;50.932;3.142;2023-06-22T09:20:52;15.23;;;13.82;;
18228;SDS011;9239;50.932;3.142;2023-06-22T09:23:19;15.50;;;13.95;;
18228;SDS011;9239;50.932;3.142;2023-06-22T09:25:46;14.48;;;12.98;;
18228;SDS011;9239;50.932;3.142;2023-06-22T09:28:13;15.00;;;13.43;;
18228;SDS011;9239;50.932;3.142;2023-06-22T09:30:40;15.43;;;14.02;;
18228;SDS011;9239;50.932;3.142;2023-06-22T09:33:10;15.65;;;14.02;;
18228;SDS011;9239;50.932;3.142;2023-06-22T09:35:37;16.25;;;14.55;;
18228;SDS011;9239;50.932;3.142;2023-06-22T09:38:03;16.98;;;14.32;;
18228;SDS011;9239;50.932;3.142;2023-06-22T09:40:30;16.38;;;14.57;;
18228;SDS011;9239;50.932;3.142;2023-06-22T09:43:00;18.48;;;16.25;;
18228;SDS011;9239;50.932;3.142;2023-06-22T09:45:27;16.20;;;14.65;;
18228;SDS011;9239;50.932;3.142;2023-06-22T09:47:54;15.98;;;14.18;;
18228;SDS011;9239;50.932;3.142;2023-06-22T09:50:22;16.73;;;14.52;;
18228;SDS011;9239;50.932;3.142;2023-06-22T09:52:49;16.98;;;15.27;;
18228;SDS011;9239;50.932;3.142;2023-06-22T09:55:19;16.98;;;15.15;;
18228;SDS011;9239;50.932;3.142;2023-06-22T09:57:46;16.20;;;14.50;;
18228;SDS011;9239;50.932;3.142;2023-06-22T10:00:14;15.88;;;14.30;;
18228;SDS011;9239;50.932;3.142;2023-06-22T10:02:42;16.27;;;14.77;;
18228;SDS011;9239;50.932;3.142;2023-06-22T10:05:09;16.75;;;15.05;;
18228;SDS011;9239;50.932;3.142;2023-06-22T10:07:37;16.88;;;15.25;;
18228;SDS011;9239;50.932;3.142;2023-06-22T10:10:07;16.85;;;14.90;;
18228;SDS011;9239;50.932;3.142;2023-06-22T10:12:34;17.85;;;16.00;;
18228;SDS011;9239;50.932;3.142;2023-06-22T10:15:01;16.52;;;14.88;;
18228;SDS011;9239;50.932;3.142;2023-06-22T10:17:29;16.70;;;15.00;;
18228;SDS011;9239;50.932;3.142;2023-06-22T10:19:55;15.32;;;13.60;;
18228;SDS011;9239;50.932;3.142;2023-06-22T10:22:22;15.85;;;14.27;;
18228;SDS011;9239;50.932;3.142;2023-06-22T10:24:50;16.17;;;14.65;;
18228;SDS011;9239;50.932;3.142;2023-06-22T10:27:17;13.95;;;12.55;;
18228;SDS011;9239;50.932;3.142;2023-06-22T10:29:44;14.50;;;13.10;;
18228;SDS011;9239;50.932;3.142;2023-06-22T10:32:11;15.30;;;13.70;;
18228;SDS011;9239;50.932;3.142;2023-06-22T10:34:38;15.38;;;13.75;;
18228;SDS011;9239;50.932;3.142;2023-06-22T10:37:05;14.15;;;12.73;;
18228;SDS011;9239;50.932;3.142;2023-06-22T10:39:32;14.88;;;13.52;;
18228;SDS011;9239;50.932;3.142;2023-06-22T10:42:00;15.80;;;14.10;;
18228;SDS011;9239;50.932;3.142;2023-06-22T10:44:27;15.93;;;14.43;;
18228;SDS011;9239;50.932;3.142;2023-06-22T10:46:54;15.80;;;14.35;;
18228;SDS011;9239;50.932;3.142;2023-06-22T10:49:20;16.15;;;14.55;;
18228;SDS011;9239;50.932;3.142;2023-06-22T10:51:47;15.55;;;13.95;;
18228;SDS011;9239;50.932;3.142;2023-06-22T10:54:14;17.60;;;15.50;;
18228;SDS011;9239;50.932;3.142;2023-06-22T10:56:44;16.73;;;15.13;;
18228;SDS011;9239;50.932;3.142;2023-06-22T10:59:12;17.90;;;16.05;;
18228;SDS011;9239;50.932;3.142;2023-06-22T11:01:39;15.38;;;13.65;;
18228;SDS011;9239;50.932;3.142;2023-06-22T11:04:06;16.23;;;14.68;;
18228;SDS011;9239;50.932;3.142;2023-06-22T11:06:33;15.63;;;14.02;;
18228;SDS011;9239;50.932;3.142;2023-06-22T11:09:00;16.13;;;14.43;;
18228;SDS011;9239;50.932;3.142;2023-06-22T11:11:28;15.82;;;14.23;;
18228;SDS011;9239;50.932;3.142;2023-06-22T11:13:58;16.95;;;15.23;;
18228;SDS011;9239;50.932;3.142;2023-06-22T11:16:26;17.17;;;15.38;;
18228;SDS011;9239;50.932;3.142;2023-06-22T11:18:53;15.93;;;14.25;;
18228;SDS011;9239;50.932;3.142;2023-06-22T11:21:23;16.00;;;14.40;;
18228;SDS011;9239;50.932;3.142;2023-06-22T11:23:51;15.90;;;14.30;;
18228;SDS011;9239;50.932;3.142;2023-06-22T11:26:18;14.23;;;12.82;;
18228;SDS011;9239;50.932;3.142;2023-06-22T11:28:47;16.13;;;14.52;;
18228;SDS011;9239;50.932;3.142;2023-06-22T11:31:14;15.05;;;13.65;;
18228;SDS011;9239;50.932;3.142;2023-06-22T11:33:43;15.73;;;14.23;;
18228;SDS011;9239;50.932;3.142;2023-06-22T11:36:10;15.77;;;14.27;;
18228;SDS011;9239;50.932;3.142;2023-06-22T11:38:37;14.57;;;13.18;;
18228;SDS011;9239;50.932;3.142;2023-06-22T11:41:04;15.50;;;14.00;;
18228;SDS011;9239;50.932;3.142;2023-06-22T11:43:32;16.08;;;14.48;;
18228;SDS011;9239;50.932;3.142;2023-06-22T11:46:02;15.40;;;13.90;;
18228;SDS011;9239;50.932;3.142;2023-06-22T11:48:32;17.13;;;15.43;;
18228;SDS011;9239;50.932;3.142;2023-06-22T11:51:00;16.08;;;14.57;;
18228;SDS011;9239;50.932;3.142;2023-06-22T11:53:28;16.20;;;14.60;;
18228;SDS011;9239;50.932;3.142;2023-06-22T11:55:56;16.65;;;14.90;;
18228;SDS011;9239;50.932;3.142;2023-06-22T11:58:23;15.38;;;13.85;;
18228;SDS011;9239;50.932;3.142;2023-06-22T12:00:50;17.20;;;15.10;;
18228;SDS011;9239;50.932;3.142;2023-06-22T12:03:17;19.85;;;15.73;;
18228;SDS011;9239;50.932;3.142;2023-06-22T12:05:44;17.63;;;15.75;;
18228;SDS011;9239;50.932;3.142;2023-06-22T12:08:12;16.77;;;15.07;;
18228;SDS011;9239;50.932;3.142;2023-06-22T12:10:39;17.88;;;16.15;;
18228;SDS011;9239;50.932;3.142;2023-06-22T12:13:07;16.20;;;14.60;;
18228;SDS011;9239;50.932;3.142;2023-06-22T12:15:33;17.38;;;15.68;;
18228;SDS011;9239;50.932;3.142;2023-06-22T12:18:00;16.00;;;14.50;;
18228;SDS011;9239;50.932;3.142;2023-06-22T12:20:30;15.05;;;13.57;;
18228;SDS011;9239;50.932;3.142;2023-06-22T12:22:57;18.05;;;16.23;;
18228;SDS011;9239;50.932;3.142;2023-06-22T12:25:26;17.83;;;15.88;;
18228;SDS011;9239;50.932;3.142;2023-06-22T12:27:54;16.52;;;14.13;;
18228;SDS011;9239;50.932;3.142;2023-06-22T12:30:21;15.63;;;14.05;;
18228;SDS011;9239;50.932;3.142;2023-06-22T12:32:48;14.93;;;13.45;;
18228;SDS011;9239;50.932;3.142;2023-06-22T12:35:16;17.15;;;15.43;;
18228;SDS011;9239;50.932;3.142;2023-06-22T12:37:43;16.92;;;14.98;;
18228;SDS011;9239;50.932;3.142;2023-06-22T12:40:10;16.70;;;14.73;;
18228;SDS011;9239;50.932;3.142;2023-06-22T12:42:39;16.95;;;15.15;;
18228;SDS011;9239;50.932;3.142;2023-06-22T12:45:07;16.02;;;14.30;;
18228;SDS011;9239;50.932;3.142;2023-06-22T12:47:34;16.50;;;14.88;;
18228;SDS011;9239;50.932;3.142;2023-06-22T12:50:01;15.68;;;14.07;;
18228;SDS011;9239;50.932;3.142;2023-06-22T12:52:29;15.82;;;13.98;;
18228;SDS011;9239;50.932;3.142;2023-06-22T12:54:57;15.50;;;13.60;;
18228;SDS011;9239;50.932;3.142;2023-06-22T12:57:24;16.35;;;14.73;;
18228;SDS011;9239;50.932;3.142;2023-06-22T12:59:52;15.93;;;14.30;;
18228;SDS011;9239;50.932;3.142;2023-06-22T13:02:19;18.15;;;16.25;;
18228;SDS011;9239;50.932;3.142;2023-06-22T13:04:46;18.65;;;16.80;;
18228;SDS011;9239;50.932;3.142;2023-06-22T13:07:13;17.92;;;16.10;;
18228;SDS011;9239;50.932;3.142;2023-06-22T13:09:40;22.15;;;19.77;;
18228;SDS011;9239;50.932;3.142;2023-06-22T13:12:07;21.10;;;18.92;;
18228;SDS011;9239;50.932;3.142;2023-06-22T13:14:34;24.05;;;19.13;;
18228;SDS011;9239;50.932;3.142;2023-06-22T13:17:03;21.15;;;19.02;;
18228;SDS011;9239;50.932;3.142;2023-06-22T13:19:30;21.48;;;18.23;;
18228;SDS011;9239;50.932;3.142;2023-06-22T13:21:57;22.20;;;17.77;;
18228;SDS011;9239;50.932;3.142;2023-06-22T13:24:27;20.13;;;18.10;;
18228;SDS011;9239;50.932;3.142;2023-06-22T13:26:54;19.90;;;17.08;;
18228;SDS011;9239;50.932;3.142;2023-06-22T13:29:21;20.42;;;15.75;;
18228;SDS011;9239;50.932;3.142;2023-06-22T13:31:48;20.02;;;17.52;;
18228;SDS011;9239;50.932;3.142;2023-06-22T13:34:16;19.33;;;17.23;;
18228;SDS011;9239;50.932;3.142;2023-06-22T13:36:43;22.00;;;17.45;;
18228;SDS011;9239;50.932;3.142;2023-06-22T13:39:11;18.20;;;16.30;;
18228;SDS011;9239;50.932;3.142;2023-06-22T13:41:38;17.15;;;14.75;;
18228;SDS011;9239;50.932;3.142;2023-06-22T13:44:04;16.67;;;14.82;;
18228;SDS011;9239;50.932;3.142;2023-06-22T13:46:31;18.60;;;14.30;;
18228;SDS011;9239;50.932;3.142;2023-06-22T13:48:58;15.98;;;13.80;;
18228;SDS011;9239;50.932;3.142;2023-06-22T13:51:27;17.23;;;13.38;;
18228;SDS011;9239;50.932;3.142;2023-06-22T13:53:53;14.95;;;13.40;;
18228;SDS011;9239;50.932;3.142;2023-06-22T13:56:20;16.65;;;13.80;;
18228;SDS011;9239;50.932;3.142;2023-06-22T13:58:47;17.83;;;13.65;;
18228;SDS011;9239;50.932;3.142;2023-06-22T14:01:14;16.58;;;14.43;;
18228;SDS011;9239;50.932;3.142;2023-06-22T14:03:43;16.25;;;13.23;;
18228;SDS011;9239;50.932;3.142;2023-06-22T14:06:12;15.15;;;13.75;;
18228;SDS011;9239;50.932;3.142;2023-06-22T14:08:40;15.88;;;13.35;;
18228;SDS011;9239;50.932;3.142;2023-06-22T14:11:07;15.80;;;13.32;;
18228;SDS011;9239;50.932;3.142;2023-06-22T14:13:34;16.65;;;13.18;;
18228;SDS011;9239;50.932;3.142;2023-06-22T14:16:01;15.63;;;14.13;;
18228;SDS011;9239;50.932;3.142;2023-06-22T14:18:29;13.30;;;12.00;;
18228;SDS011;9239;50.932;3.142;2023-06-22T14:20:56;13.20;;;11.88;;
18228;SDS011;9239;50.932;3.142;2023-06-22T14:23:22;14.40;;;11.93;;
18228;SDS011;9239;50.932;3.142;2023-06-22T14:25:51;13.25;;;9.93;;
18228;SDS011;9239;50.932;3.142;2023-06-22T14:28:18;9.85;;;8.85;;
18228;SDS011;9239;50.932;3.142;2023-06-22T14:30:45;10.90;;;9.00;;
18228;SDS011;9239;50.932;3.142;2023-06-22T14:33:12;9.75;;;8.70;;
18228;SDS011;9239;50.932;3.142;2023-06-22T14:35:39;11.70;;;10.60;;
18228;SDS011;9239;50.932;3.142;2023-06-22T14:38:06;12.65;;;11.45;;
18228;SDS011;9239;50.932;3.142;2023-06-22T14:40:33;12.18;;;10.65;;
18228;SDS011;9239;50.932;3.142;2023-06-22T14:43:01;9.07;;;8.05;;
18228;SDS011;9239;50.932;3.142;2023-06-22T14:45:28;9.27;;;8.38;;
18228;SDS011;9239;50.932;3.142;2023-06-22T14:47:55;9.30;;;7.93;;